メインページ
METAR-TAF:

METAR-TAF

空港 :

ベイルート, レバノン

緯度: 33-49N, 経度: 035-29E, 海抜: 29m

現時点の気象観測

当レポートは51分前の11:00(UTC)に作成
西/南西の風 8kt
気温 23°C
湿度 65%
気圧 1018 hPa
視程: 8000m
高度2600ftの雲は散在している

METAR: OLBA 241100Z 24008KT 8000 SCT026 23/16 Q1018

時間: 14:51 (11:51 UTC)

予報

当レポートは1時間51分前の10:00(UTC)に作成
予報は24日の 12時(UTC)から 25日の 18時(UTC)まで有効
南西の風 10kt、最大20ktの突風を伴う
視程: 8000m
高度2600ftの雲は散在している
24日の 21時(UTC)から 24日の 24時(UTC)まで徐々に
変向風 5kt
25日の 09時(UTC)から 25日の 12時(UTC)まで徐々に
北/北西の風 13kt
高度2600ftの雲は散在している
高度20000ftの千切れ雲あり
24日の 12時(UTC)から 25日の 18時(UTC)まで一時的に
視程: 4000m

TAF: OLBA 241000Z 2412/2518 23010G20KT 8000 SCT026 BECMG 2421/2424 VRB05KT BECMG 2509/2512 33013KT SCT026 BKN200 TEMPO 2412/2518 4000 BR

4,000以上の空港の気象観測と天気予報(METAR報とTAF報)

利用可能な観測所は地図上に黄色い丸と赤い丸で示す。

丸の上にカーソルを重ねると観測所名を参照できる。

次にクリックすると気象観測と天気予報を参照できる。

マップの切り替え:黒色「×」印の緑ボタンをクリックして拡大、「-」印の緑ボタンをクリックして縮小、緑色の三角印をクリックして隣りの地図に切り替え


METAR-TAF: